This is the latest recevied weather packets stored in our database for station/object AC1IX. If no packets are shown the sender has not sent any weather packets the latest 1 day(s).
| Time | Temp. | Humidity | Pressure | Rain* | Wind** | Luminosity | Snow |
|---|---|---|---|---|---|---|---|
| 1778101995 | 15° C | 99% | 1005.6 hPa | 1.78 mm | - | 47 W/m² | - |
| 1778100782 | 15° C | 99% | 1005.7 hPa | 0 mm | - | 21 W/m² | - |
| 1778097752 | 15° C | 99% | 1006.4 hPa | 0 mm | - | 55 W/m² | - |
| 1778097448 | 14.44° C | 99% | 1006.2 hPa | 0 mm | - | 35 W/m² | - |
| 1778097145 | 14.44° C | 99% | 1006.5 hPa | 0 mm | - | 39 W/m² | - |
| 1778095933 | 14.44° C | 99% | 1006.2 hPa | 0 mm | - | 58 W/m² | - |
| 1778094719 | 15° C | 99% | 1006.3 hPa | 0 mm | - | 45 W/m² | - |
| 1778094417 | 14.44° C | 99% | 1006.5 hPa | 0 mm | - | 49 W/m² | - |
| 1778092598 | 15° C | 99% | 1006.6 hPa | 3.05 mm | - | 66 W/m² | - |
| 1778090780 | 14.44° C | 99% | 1006.6 hPa | 3.05 mm | - | 108 W/m² | - |
| 1778089568 | 14.44° C | 99% | 1006.7 hPa | 3.05 mm | - | 93 W/m² | - |
| 1778087447 | 15° C | 99% | 1007.5 hPa | 3.05 mm | - | 61 W/m² | - |
| 1778086540 | 15° C | 99% | 1007.9 hPa | 4.32 mm | - | 58 W/m² | - |
| 1778085630 | 15° C | 99% | 1008.1 hPa | 3.05 mm | - | 68 W/m² | - |
| 1778079978 | 14.44° C | 98% | 1008.8 hPa | 1.27 mm | - | 58 W/m² | - |
| 1778079675 | 14.44° C | 97% | 1009 hPa | 1.27 mm | - | 66 W/m² | - |
| 1778079372 | 14.44° C | 97% | 1008.9 hPa | 1.78 mm | - | 67 W/m² | - |
| 1778079069 | 15° C | 95% | 1009.1 hPa | 3.56 mm | - | 58 W/m² | - |
| 1778077556 | 16.67° C | 86% | 1009.2 hPa | 0 mm | - | 43 W/m² | - |
| 1778077254 | 16.67° C | 85% | 1009 hPa | 0 mm | - | 42 W/m² | - |
| 1778076347 | 17.22° C | 83% | 1008.9 hPa | 0 mm | - | 62 W/m² | - |
| 1778075741 | 17.78° C | 83% | 1008.7 hPa | 0 mm | - | 107 W/m² | - |
| 1778075437 | 17.78° C | 82% | 1008.7 hPa | 0 mm | - | 140 W/m² | - |
| 1778073618 | 17.78° C | 83% | 1008.4 hPa | 0 mm | - | 237 W/m² | - |
| 1778071197 | 16.11° C | 84% | 1009.2 hPa | 0 mm | - | 69 W/m² | - |
* Rain latest hour (hover to see other rain measurements)
** Current wind speed in m/s (hover to see current wind gust speed)